Time;durP1;ratioP1;P1;durP2;ratioP2;P2;SDS_P1;SDS_P2;PMS_P1;PMS_P2;Temp;Humidity;BMP_temperature;BMP_pressure;BME280_temperature;BME280_humidity;BME280_pressure;Samples;Min_cycle;Max_cycle;Signal;HPM_P1;HPM_P2
2022/09/09 00:00:21;;;;;;;0.70;0.70;;;18.80;99.90;;;;;;5034634;28;20220;-61
2022/09/09 00:02:55;;;;;;;0.80;0.80;;;18.80;99.90;;;;;;5042824;28;20201;-61
2022/09/09 00:05:30;;;;;;;1.10;0.90;;;18.80;99.90;;;;;;5035931;28;20203;-61
2022/09/09 00:08:03;;;;;;;0.97;0.77;;;18.70;99.90;;;;;;5042881;28;20294;-61
2022/09/09 00:10:33;;;;;;;0.80;0.80;;;18.70;99.90;;;;;;5033030;28;20299;-62
2022/09/09 00:13:09;;;;;;;0.63;0.63;;;18.60;99.90;;;;;;5042194;28;20218;-61
2022/09/09 00:15:41;;;;;;;0.70;0.70;;;18.60;99.90;;;;;;5035638;28;20226;-61
2022/09/09 00:18:18;;;;;;;0.60;0.60;;;18.60;99.90;;;;;;5036053;28;20211;-61
2022/09/09 00:20:50;;;;;;;0.70;0.70;;;18.60;99.90;;;;;;5041509;28;20684;-61
2022/09/09 00:23:25;;;;;;;0.90;0.90;;;18.50;99.90;;;;;;5036219;28;20196;-60
2022/09/09 00:26:00;;;;;;;0.60;0.60;;;18.50;99.90;;;;;;5045471;28;20199;-61
2022/09/09 00:28:30;;;;;;;0.50;0.50;;;18.50;99.90;;;;;;5043683;28;20219;-61
2022/09/09 00:31:02;;;;;;;0.73;0.73;;;18.60;99.90;;;;;;5047809;28;20658;-61
2022/09/09 00:33:32;;;;;;;2.03;1.20;;;18.60;99.90;;;;;;5034589;28;20200;-61
2022/09/09 00:36:00;;;;;;;1.17;1.10;;;18.60;99.90;;;;;;5047834;28;20227;-61
2022/09/09 00:38:33;;;;;;;1.23;0.90;;;18.60;99.90;;;;;;5039350;28;20645;-61
2022/09/09 00:41:07;;;;;;;0.80;0.80;;;18.60;99.90;;;;;;5043057;28;20192;-62
2022/09/09 00:43:37;;;;;;;0.70;0.70;;;18.70;99.90;;;;;;5047597;28;20680;-62
2022/09/09 00:46:23;;;;;;;0.90;0.90;;;18.70;99.90;;;;;;5029208;28;20199;-62
2022/09/09 00:48:58;;;;;;;0.80;0.80;;;18.80;99.90;;;;;;5040243;28;20231;-62
2022/09/09 00:51:31;;;;;;;0.60;0.60;;;18.80;99.90;;;;;;5046016;28;20673;-61
2022/09/09 00:54:18;;;;;;;0.50;0.50;;;18.80;99.90;;;;;;5043751;28;20215;-60
2022/09/09 00:56:54;;;;;;;0.80;0.80;;;18.70;99.90;;;;;;5047432;28;20689;-62
2022/09/09 00:59:30;;;;;;;0.67;0.67;;;18.70;99.90;;;;;;5039405;28;20219;-62
2022/09/09 01:01:57;;;;;;;0.80;0.80;;;18.70;99.90;;;;;;5047382;28;20211;-62
2022/09/09 01:04:30;;;;;;;0.57;0.57;;;18.70;99.90;;;;;;5038750;28;20581;-61
2022/09/09 01:07:10;;;;;;;0.60;0.60;;;18.60;99.90;;;;;;5046697;28;20231;-60
2022/09/09 01:09:46;;;;;;;0.77;0.77;;;18.50;99.90;;;;;;5021312;28;20239;-62
2022/09/09 01:12:17;;;;;;;0.50;0.50;;;18.60;99.90;;;;;;5041195;28;20768;-62
2022/09/09 01:14:51;;;;;;;0.70;0.70;;;18.50;99.90;;;;;;5044816;28;20204;-61
2022/09/09 01:17:22;;;;;;;0.40;0.40;;;18.60;99.90;;;;;;5052706;28;20211;-62
2022/09/09 01:20:01;;;;;;;0.30;0.30;;;18.60;99.90;;;;;;5039452;28;20224;-61
2022/09/09 01:22:36;;;;;;;0.80;0.77;;;18.60;99.90;;;;;;5043717;28;20286;-61
2022/09/09 01:25:20;;;;;;;0.40;0.40;;;18.50;99.90;;;;;;5043039;28;20666;-61
2022/09/09 01:27:50;;;;;;;0.70;0.70;;;18.40;99.90;;;;;;5048082;28;20667;-62
2022/09/09 01:30:21;;;;;;;0.70;0.70;;;18.20;99.90;;;;;;5048933;28;20220;-61
2022/09/09 01:32:50;;;;;;;0.43;0.43;;;18.10;99.90;;;;;;5040833;28;20219;-62
2022/09/09 01:35:28;;;;;;;0.60;0.60;;;18.00;99.90;;;;;;5049576;28;20208;-62
2022/09/09 01:37:54;;;;;;;1.20;0.80;;;18.10;99.90;;;;;;5045942;28;20290;-62
2022/09/09 01:40:21;;;;;;;0.63;0.60;;;18.00;99.90;;;;;;5050486;28;20220;-62
2022/09/09 01:42:49;;;;;;;0.67;0.67;;;18.10;99.90;;;;;;5049751;28;20203;-62
2022/09/09 01:45:17;;;;;;;0.70;0.70;;;18.10;99.90;;;;;;5045621;28;20582;-61
2022/09/09 01:47:45;;;;;;;0.80;0.80;;;18.10;99.90;;;;;;5048175;28;20201;-61
2022/09/09 01:50:15;;;;;;;0.87;0.80;;;18.00;99.90;;;;;;5045647;28;20227;-63
2022/09/09 01:52:44;;;;;;;0.70;0.70;;;18.00;99.90;;;;;;5049640;28;20208;-63
2022/09/09 01:55:12;;;;;;;0.80;0.80;;;17.90;99.90;;;;;;5042018;28;20694;-63
2022/09/09 01:57:46;;;;;;;1.07;0.73;;;17.90;99.90;;;;;;5047196;28;20220;-62
2022/09/09 02:00:16;;;;;;;0.53;0.53;;;17.90;99.90;;;;;;5044370;28;20235;-62
2022/09/09 02:02:50;;;;;;;0.60;0.60;;;17.80;99.90;;;;;;5041724;28;20295;-63
2022/09/09 02:05:26;;;;;;;0.63;0.63;;;17.80;99.90;;;;;;5045188;28;20204;-63
2022/09/09 02:07:56;;;;;;;0.80;0.80;;;17.80;99.90;;;;;;5050152;28;20204;-62
2022/09/09 02:10:29;;;;;;;0.40;0.40;;;17.70;99.90;;;;;;5045766;28;20236;-62
2022/09/09 02:13:01;;;;;;;0.60;0.60;;;17.70;99.90;;;;;;5044616;28;20208;-62
2022/09/09 02:15:34;;;;;;;0.60;0.60;;;17.60;99.90;;;;;;5048307;28;20197;-62
2022/09/09 02:18:06;;;;;;;0.63;0.63;;;17.60;99.90;;;;;;5045828;28;20194;-61
2022/09/09 02:20:33;;;;;;;0.60;0.60;;;17.60;99.90;;;;;;5047098;28;20205;-62
2022/09/09 02:23:02;;;;;;;0.50;0.50;;;17.50;99.90;;;;;;5045966;28;20204;-63
2022/09/09 02:25:30;;;;;;;0.53;0.53;;;17.50;99.90;;;;;;5049956;28;20203;-63
2022/09/09 02:27:59;;;;;;;0.60;0.50;;;17.40;99.90;;;;;;5045468;28;20204;-63
2022/09/09 02:30:26;;;;;;;0.50;0.50;;;17.40;99.90;;;;;;5045080;28;20726;-63
2022/09/09 02:32:57;;;;;;;0.53;0.53;;;17.30;99.90;;;;;;5047779;28;20197;-62
2022/09/09 02:35:26;;;;;;;0.50;0.50;;;17.30;99.90;;;;;;5047539;28;20208;-63
2022/09/09 02:37:57;;;;;;;0.80;0.67;;;17.30;99.90;;;;;;5048964;28;20229;-62
2022/09/09 02:40:24;;;;;;;0.50;0.50;;;17.40;99.90;;;;;;5047224;28;20227;-63
2022/09/09 02:42:51;;;;;;;0.60;0.60;;;17.20;99.90;;;;;;5043028;28;20200;-63
2022/09/09 02:45:20;;;;;;;0.67;0.67;;;17.20;99.90;;;;;;5047788;28;20242;-63
2022/09/09 02:47:55;;;;;;;0.50;0.50;;;17.10;99.90;;;;;;5044360;28;20196;-63
2022/09/09 02:50:26;;;;;;;0.50;0.50;;;17.00;99.90;;;;;;5049671;28;20215;-63
2022/09/09 02:53:07;;;;;;;0.60;0.60;;;16.90;99.90;;;;;;5041418;28;20220;-62
2022/09/09 02:55:39;;;;;;;0.43;0.43;;;17.00;99.90;;;;;;5044112;28;20200;-63
2022/09/09 02:58:11;;;;;;;0.40;0.40;;;17.00;99.90;;;;;;5041642;28;20212;-62
2022/09/09 03:00:39;;;;;;;0.57;0.50;;;17.10;99.90;;;;;;5047753;28;20642;-61
2022/09/09 03:03:07;;;;;;;0.40;0.40;;;17.10;99.90;;;;;;5044034;28;20662;-61
2022/09/09 03:05:36;;;;;;;0.67;0.67;;;17.10;99.90;;;;;;5048329;28;20200;-62
2022/09/09 03:08:03;;;;;;;0.40;0.40;;;17.10;99.90;;;;;;5044827;28;20617;-62
2022/09/09 03:10:30;;;;;;;0.80;0.80;;;17.20;99.90;;;;;;5048863;28;20361;-62
2022/09/09 03:12:57;;;;;;;0.33;0.33;;;17.20;99.90;;;;;;5044435;28;20262;-62
2022/09/09 03:15:24;;;;;;;0.60;0.60;;;17.20;99.90;;;;;;5044421;28;20196;-62
2022/09/09 03:17:51;;;;;;;0.50;0.50;;;17.10;99.90;;;;;;5046015;28;20864;-62
2022/09/09 03:20:18;;;;;;;0.40;0.40;;;17.20;99.90;;;;;;5044078;28;20224;-62
2022/09/09 03:22:46;;;;;;;0.43;0.43;;;17.10;99.90;;;;;;5039777;28;20212;-63
2022/09/09 03:25:13;;;;;;;0.40;0.40;;;17.10;99.90;;;;;;5045013;28;20626;-63
2022/09/09 03:27:40;;;;;;;0.60;0.53;;;17.00;99.90;;;;;;5043298;28;20200;-63
2022/09/09 03:30:08;;;;;;;0.80;0.80;;;16.90;99.90;;;;;;5044616;28;20215;-63
2022/09/09 03:32:35;;;;;;;0.60;0.60;;;16.90;99.90;;;;;;5046511;28;20538;-63
2022/09/09 03:35:01;;;;;;;0.57;0.57;;;16.90;99.90;;;;;;5044842;28;20207;-62
2022/09/09 03:37:28;;;;;;;0.40;0.40;;;16.90;99.90;;;;;;5048841;28;20220;-62
2022/09/09 03:39:56;;;;;;;0.60;0.60;;;17.00;99.90;;;;;;5044474;28;20224;-63
2022/09/09 03:42:23;;;;;;;0.50;0.50;;;17.00;99.90;;;;;;5043329;28;20219;-62
2022/09/09 03:44:51;;;;;;;1.20;0.70;;;16.90;99.90;;;;;;5043094;28;20563;-62
2022/09/09 03:47:19;;;;;;;0.60;0.57;;;16.90;99.90;;;;;;5043596;28;20192;-62
2022/09/09 03:49:46;;;;;;;0.50;0.50;;;16.90;99.90;;;;;;5046002;28;20588;-63
2022/09/09 03:52:13;;;;;;;0.70;0.67;;;16.90;99.90;;;;;;5045032;28;20266;-63
2022/09/09 03:54:42;;;;;;;0.40;0.40;;;16.80;99.90;;;;;;5048008;28;20205;-62
2022/09/09 03:57:10;;;;;;;0.63;0.63;;;16.90;99.90;;;;;;5044891;28;20293;-62
2022/09/09 03:59:38;;;;;;;0.50;0.50;;;16.80;99.90;;;;;;5041152;28;20301;-62
2022/09/09 04:02:05;;;;;;;0.60;0.60;;;16.90;99.90;;;;;;5030922;28;20204;-60
2022/09/09 04:04:32;;;;;;;0.50;0.50;;;16.80;99.90;;;;;;5043368;28;20265;-62
2022/09/09 04:06:59;;;;;;;0.80;0.70;;;16.90;99.90;;;;;;5045871;28;20200;-61
2022/09/09 04:09:25;;;;;;;0.80;0.80;;;16.80;99.90;;;;;;5044563;28;20231;-61
2022/09/09 04:11:52;;;;;;;0.70;0.70;;;16.80;99.90;;;;;;5047645;28;20547;-61
2022/09/09 04:14:21;;;;;;;0.60;0.60;;;16.90;99.90;;;;;;5045282;28;20200;-61
2022/09/09 04:16:48;;;;;;;0.75;0.75;;;16.90;99.90;;;;;;5039892;28;20231;-60
2022/09/09 04:19:15;;;;;;;0.50;0.50;;;17.00;99.90;;;;;;5045983;28;20705;-59
2022/09/09 04:21:42;;;;;;;0.73;0.73;;;17.00;99.90;;;;;;5042639;28;20207;-61
2022/09/09 04:24:09;;;;;;;0.70;0.70;;;17.00;99.90;;;;;;5046758;28;20204;-60
2022/09/09 04:26:37;;;;;;;0.80;0.80;;;17.00;99.90;;;;;;5044644;28;20199;-61
2022/09/09 04:29:07;;;;;;;0.57;0.57;;;17.00;99.90;;;;;;5042431;28;20736;-63
2022/09/09 04:31:37;;;;;;;0.40;0.40;;;17.10;99.90;;;;;;5037500;28;20207;-61
2022/09/09 04:34:05;;;;;;;0.60;0.60;;;17.10;99.90;;;;;;5038997;28;20206;-62
2022/09/09 04:36:32;;;;;;;0.87;0.87;;;17.00;99.90;;;;;;5037838;28;20236;-62
2022/09/09 04:38:59;;;;;;;0.83;0.80;;;16.90;99.90;;;;;;5045249;28;20220;-62
2022/09/09 04:41:26;;;;;;;0.60;0.60;;;16.90;99.90;;;;;;5034190;28;20207;-62
2022/09/09 04:43:53;;;;;;;0.70;0.70;;;17.00;99.90;;;;;;5046555;28;20639;-61
2022/09/09 04:46:20;;;;;;;1.00;1.00;;;17.00;99.90;;;;;;5043910;28;20201;-61
2022/09/09 04:48:49;;;;;;;0.70;0.70;;;17.00;99.90;;;;;;5049673;28;20226;-61
2022/09/09 04:51:17;;;;;;;0.70;0.70;;;17.00;99.90;;;;;;5045192;28;20200;-60
2022/09/09 04:53:44;;;;;;;0.53;0.53;;;17.00;99.90;;;;;;5050467;28;20199;-62
2022/09/09 04:56:12;;;;;;;1.07;1.07;;;17.00;99.90;;;;;;5049101;28;20196;-60
2022/09/09 04:58:41;;;;;;;0.80;0.80;;;17.00;99.90;;;;;;5042828;28;20694;-61
2022/09/09 05:01:10;;;;;;;0.80;0.80;;;17.00;99.90;;;;;;5049901;28;20199;-60
2022/09/09 05:03:37;;;;;;;0.63;0.53;;;17.00;99.90;;;;;;5043146;28;20211;-60
2022/09/09 05:06:10;;;;;;;0.80;0.80;;;16.90;99.90;;;;;;5039304;28;20208;-58
2022/09/09 05:08:38;;;;;;;1.38;0.60;;;16.90;99.90;;;;;;5039598;28;20239;-61
2022/09/09 05:11:05;;;;;;;0.63;0.63;;;16.80;99.90;;;;;;5052857;28;20688;-60
2022/09/09 05:13:32;;;;;;;0.60;0.60;;;16.80;99.90;;;;;;5044984;28;20215;-60
2022/09/09 05:15:59;;;;;;;0.53;0.53;;;16.70;99.90;;;;;;5045724;28;20564;-60
2022/09/09 05:18:26;;;;;;;0.83;0.50;;;16.70;99.90;;;;;;5047119;28;20236;-61
2022/09/09 05:20:53;;;;;;;0.50;0.50;;;16.70;99.90;;;;;;5045222;28;20197;-60
2022/09/09 05:23:22;;;;;;;0.60;0.60;;;16.80;99.90;;;;;;5049709;28;20200;-62
2022/09/09 05:25:59;;;;;;;0.63;0.63;;;16.70;99.90;;;;;;5044994;28;20204;-61
2022/09/09 05:28:26;;;;;;;0.80;0.80;;;16.70;99.90;;;;;;5047459;28;20198;-62
2022/09/09 05:30:57;;;;;;;0.50;0.50;;;16.80;99.90;;;;;;5045187;28;20201;-61
2022/09/09 05:33:25;;;;;;;0.67;0.67;;;16.70;99.90;;;;;;5049681;28;20212;-61
2022/09/09 05:35:57;;;;;;;0.90;0.90;;;16.70;99.90;;;;;;5046848;28;20207;-62
2022/09/09 05:38:26;;;;;;;0.90;0.90;;;16.70;99.90;;;;;;5049844;28;20218;-62
2022/09/09 05:40:53;;;;;;;0.80;0.80;;;16.70;99.90;;;;;;5046407;28;20601;-61
2022/09/09 05:43:20;;;;;;;1.50;1.07;;;16.70;99.90;;;;;;5043115;28;20204;-61
2022/09/09 05:45:48;;;;;;;0.63;0.63;;;16.70;99.90;;;;;;5043230;28;20201;-60
2022/09/09 05:48:15;;;;;;;1.00;0.63;;;16.80;99.90;;;;;;5045744;28;20230;-61
2022/09/09 05:50:42;;;;;;;0.67;0.67;;;16.80;99.90;;;;;;5045972;28;20200;-61
2022/09/09 05:53:10;;;;;;;0.63;0.63;;;16.80;99.90;;;;;;5054385;28;20563;-61
2022/09/09 05:55:38;;;;;;;0.63;0.63;;;16.90;99.90;;;;;;5044727;28;20235;-61
2022/09/09 05:58:05;;;;;;;0.43;0.43;;;17.00;99.90;;;;;;5028551;28;20234;-61
2022/09/09 06:00:32;;;;;;;0.80;0.80;;;17.00;99.90;;;;;;5046856;28;20290;-60
2022/09/09 06:02:59;;;;;;;0.70;0.60;;;17.00;99.90;;;;;;5045369;28;20616;-61
2022/09/09 06:05:28;;;;;;;0.70;0.70;;;17.00;99.90;;;;;;5049228;28;20581;-61
2022/09/09 06:07:55;;;;;;;0.63;0.63;;;17.10;99.90;;;;;;5044854;28;20205;-62
2022/09/09 06:10:22;;;;;;;1.00;0.70;;;17.10;99.90;;;;;;5051068;28;20773;-60
2022/09/09 06:12:53;;;;;;;0.60;0.60;;;17.20;99.90;;;;;;5045366;28;20205;-61
2022/09/09 06:15:20;;;;;;;0.80;0.80;;;17.30;99.90;;;;;;5044790;28;20195;-59
2022/09/09 06:17:47;;;;;;;0.83;0.70;;;17.40;99.90;;;;;;5044324;28;20605;-61
2022/09/09 06:20:14;;;;;;;0.60;0.60;;;17.40;99.90;;;;;;5045039;28;20708;-62
2022/09/09 06:22:41;;;;;;;0.80;0.80;;;17.50;99.90;;;;;;5046745;28;20296;-62
2022/09/09 06:25:09;;;;;;;0.70;0.70;;;17.50;99.90;;;;;;5045943;28;20349;-62
2022/09/09 06:27:36;;;;;;;1.80;0.77;;;17.50;99.90;;;;;;5046383;28;20197;-61
2022/09/09 06:30:05;;;;;;;0.50;0.43;;;17.50;99.90;;;;;;5044560;28;20664;-62
2022/09/09 06:32:34;;;;;;;0.70;0.70;;;17.60;99.90;;;;;;5047609;28;20208;-62
2022/09/09 06:35:02;;;;;;;0.60;0.60;;;17.60;99.90;;;;;;5045223;28;20659;-61
2022/09/09 06:37:29;;;;;;;0.60;0.60;;;17.60;99.90;;;;;;5045948;28;20213;-61
2022/09/09 06:39:56;;;;;;;3.33;0.80;;;17.70;99.90;;;;;;5030014;28;20558;-61
2022/09/09 06:42:22;;;;;;;0.77;0.77;;;17.70;99.90;;;;;;5028804;28;20201;-61
2022/09/09 06:44:49;;;;;;;0.80;0.80;;;17.70;99.90;;;;;;5022322;28;20211;-62
2022/09/09 06:47:17;;;;;;;0.60;0.60;;;17.80;99.90;;;;;;5028238;28;20193;-63
2022/09/09 06:49:44;;;;;;;0.70;0.70;;;17.80;99.90;;;;;;5021952;28;20224;-61
2022/09/09 06:52:11;;;;;;;0.60;0.60;;;17.90;99.90;;;;;;5042042;28;20197;-60
2022/09/09 06:54:38;;;;;;;1.90;1.00;;;18.00;99.90;;;;;;5031685;28;20263;-60
2022/09/09 06:57:06;;;;;;;0.77;0.77;;;18.10;99.90;;;;;;5028238;28;20831;-60
2022/09/09 06:59:33;;;;;;;1.03;0.80;;;18.20;99.90;;;;;;5038020;28;20589;-61
2022/09/09 07:02:01;;;;;;;0.67;0.60;;;18.30;99.90;;;;;;5034214;28;20208;-61
2022/09/09 07:04:29;;;;;;;1.17;0.80;;;18.40;99.90;;;;;;5043095;28;20232;-61
2022/09/09 07:06:55;;;;;;;0.90;0.90;;;18.50;99.90;;;;;;5040256;28;20213;-58
2022/09/09 07:09:23;;;;;;;1.20;0.80;;;18.50;99.90;;;;;;5038789;28;20690;-61
2022/09/09 07:11:52;;;;;;;0.97;0.80;;;18.50;99.90;;;;;;5034538;28;20661;-62
2022/09/09 07:14:19;;;;;;;0.70;0.70;;;18.50;99.90;;;;;;5044712;28;20203;-63
2022/09/09 07:16:47;;;;;;;0.70;0.70;;;18.50;99.90;;;;;;5034741;28;20218;-63
2022/09/09 07:19:15;;;;;;;0.73;0.73;;;18.60;99.90;;;;;;5045164;28;20228;-61
2022/09/09 07:21:45;;;;;;;0.60;0.60;;;18.70;99.90;;;;;;5038451;28;20201;-62
2022/09/09 07:24:12;;;;;;;0.70;0.70;;;18.70;99.90;;;;;;5036166;28;20726;-65
2022/09/09 07:26:40;;;;;;;0.77;0.77;;;18.80;99.90;;;;;;5046536;28;20206;-60
2022/09/09 07:29:07;;;;;;;0.60;0.60;;;18.90;99.90;;;;;;5037248;28;20306;-61
2022/09/09 07:31:36;;;;;;;1.37;0.90;;;19.10;99.90;;;;;;5044445;28;20196;-62
2022/09/09 07:34:04;;;;;;;0.50;0.50;;;19.30;99.90;;;;;;5063448;22;20223;-68
2022/09/09 07:36:32;;;;;;;0.70;0.70;;;19.40;99.90;;;;;;5069809;28;20203;-67
2022/09/09 07:39:02;;;;;;;0.50;0.50;;;19.40;99.90;;;;;;5072182;28;20219;-65
2022/09/09 07:41:33;;;;;;;0.70;0.70;;;19.40;99.90;;;;;;5072515;28;20241;-67
2022/09/09 07:44:04;;;;;;;0.70;0.70;;;19.40;99.90;;;;;;5083095;28;20318;-66
2022/09/09 07:46:31;;;;;;;0.80;0.80;;;19.30;99.90;;;;;;5092216;28;20663;-66
2022/09/09 07:48:58;;;;;;;1.13;1.07;;;19.30;99.90;;;;;;5093457;28;20199;-67
2022/09/09 07:51:27;;;;;;;0.77;0.77;;;19.40;99.90;;;;;;5089891;28;20207;-68
2022/09/09 07:53:57;;;;;;;0.90;0.90;;;19.60;99.90;;;;;;5099654;28;20256;-67
2022/09/09 07:56:26;;;;;;;0.60;0.60;;;19.90;99.90;;;;;;5107437;28;20198;-68
2022/09/09 07:58:55;;;;;;;0.70;0.70;;;20.00;99.90;;;;;;5097930;28;20252;-66
2022/09/09 08:01:24;;;;;;;0.63;0.63;;;20.20;99.90;;;;;;5089562;28;20209;-68
2022/09/09 08:03:58;;;;;;;1.23;1.00;;;20.30;99.90;;;;;;5092421;28;20284;-69
2022/09/09 08:06:26;;;;;;;0.60;0.60;;;20.30;99.90;;;;;;5091408;28;20270;-68
2022/09/09 08:08:54;;;;;;;0.63;0.63;;;20.50;99.90;;;;;;5091270;28;20285;-66
2022/09/09 08:11:23;;;;;;;0.80;0.80;;;20.80;99.90;;;;;;5089722;28;20286;-65
2022/09/09 08:13:52;;;;;;;0.70;0.70;;;21.00;99.90;;;;;;5101552;28;20248;-66
2022/09/09 08:16:22;;;;;;;0.90;0.90;;;21.00;99.90;;;;;;5087369;28;20221;-67
2022/09/09 08:18:49;;;;;;;1.17;0.90;;;21.00;99.90;;;;;;5090175;28;20280;-66
2022/09/09 08:21:18;;;;;;;0.60;0.60;;;21.10;99.90;;;;;;5087763;28;20195;-67
2022/09/09 08:23:47;;;;;;;0.75;0.75;;;21.10;99.90;;;;;;5090541;28;20648;-67
2022/09/09 08:26:15;;;;;;;1.10;0.83;;;21.10;99.90;;;;;;5087388;28;20207;-67
2022/09/09 08:28:43;;;;;;;0.80;0.80;;;21.00;99.90;;;;;;5092151;28;20252;-69
2022/09/09 08:31:14;;;;;;;0.70;0.70;;;20.90;99.90;;;;;;5088454;28;20211;-68
2022/09/09 08:33:41;;;;;;;0.97;0.97;;;21.00;99.90;;;;;;5088556;28;20696;-66
2022/09/09 08:36:11;;;;;;;0.90;0.90;;;21.10;99.90;;;;;;5091117;28;20213;-66
2022/09/09 08:38:39;;;;;;;0.83;0.83;;;21.20;99.90;;;;;;5087203;28;20219;-68
2022/09/09 08:41:22;;;;;;;0.60;0.60;;;21.20;99.90;;;;;;5083018;28;20198;-67
2022/09/09 08:43:59;;;;;;;0.60;0.60;;;21.30;99.90;;;;;;5091106;28;20240;-67
2022/09/09 08:46:38;;;;;;;0.70;0.40;;;21.30;99.90;;;;;;5088326;28;20198;-67
2022/09/09 08:49:15;;;;;;;0.83;0.83;;;21.40;99.90;;;;;;5093961;28;20201;-66
2022/09/09 08:51:42;;;;;;;0.70;0.70;;;21.40;99.90;;;;;;5093138;28;20199;-69
2022/09/09 08:54:10;;;;;;;0.80;0.80;;;21.50;99.90;;;;;;5091288;28;20302;-71
2022/09/09 08:56:37;;;;;;;0.60;0.60;;;21.50;99.90;;;;;;5087272;28;20289;-68
2022/09/09 08:59:05;;;;;;;0.70;0.70;;;21.40;99.90;;;;;;5088833;28;20240;-68
2022/09/09 09:01:44;;;;;;;0.80;0.80;;;21.40;99.90;;;;;;5092712;28;20198;-67
2022/09/09 09:04:28;;;;;;;0.67;0.67;;;21.50;99.90;;;;;;5087804;28;20226;-66
2022/09/09 09:07:02;;;;;;;0.50;0.50;;;21.60;99.90;;;;;;5089437;28;20289;-68
2022/09/09 09:09:39;;;;;;;0.80;0.80;;;21.60;99.90;;;;;;5088739;28;20186;-67
2022/09/09 09:12:16;;;;;;;0.70;0.70;;;21.70;99.90;;;;;;5080151;28;20201;-67
2022/09/09 09:14:45;;;;;;;0.80;0.80;;;21.70;99.90;;;;;;5085097;28;20222;-67
2022/09/09 09:17:16;;;;;;;1.07;0.83;;;21.50;99.90;;;;;;5089982;28;20195;-67
2022/09/09 09:19:46;;;;;;;0.63;0.60;;;21.50;99.90;;;;;;5087707;28;20210;-68
2022/09/09 09:22:18;;;;;;;0.60;0.60;;;21.50;99.90;;;;;;5090160;28;20195;-68
2022/09/09 09:24:52;;;;;;;1.03;1.00;;;21.50;99.90;;;;;;5088451;28;20218;-67
2022/09/09 09:27:28;;;;;;;0.80;0.80;;;21.50;99.90;;;;;;5088636;28;20288;-67
2022/09/09 09:29:57;;;;;;;0.60;0.60;;;21.40;99.90;;;;;;5092047;28;20641;-68
2022/09/09 09:32:29;;;;;;;0.67;0.67;;;21.50;99.90;;;;;;5092797;28;20202;-68
2022/09/09 09:34:57;;;;;;;0.80;0.80;;;21.40;99.90;;;;;;5094223;28;20238;-67
2022/09/09 09:37:30;;;;;;;0.80;0.80;;;21.50;99.90;;;;;;5090501;28;20207;-67
2022/09/09 09:39:57;;;;;;;1.13;1.03;;;21.40;99.90;;;;;;5092956;28;20226;-66
2022/09/09 09:42:24;;;;;;;0.80;0.80;;;21.50;99.90;;;;;;5089319;28;20205;-67
2022/09/09 09:44:51;;;;;;;0.60;0.60;;;21.50;99.90;;;;;;5092169;28;20222;-67
2022/09/09 09:47:20;;;;;;;0.70;0.70;;;21.50;99.90;;;;;;5093605;28;20807;-68
2022/09/09 09:49:56;;;;;;;0.70;0.70;;;21.40;99.90;;;;;;5090790;28;20198;-67
2022/09/09 09:52:25;;;;;;;0.80;0.80;;;21.30;99.90;;;;;;5091652;28;20202;-66
2022/09/09 09:54:53;;;;;;;0.80;0.80;;;21.10;99.90;;;;;;5092919;28;20218;-66
2022/09/09 09:57:25;;;;;;;0.83;0.83;;;20.90;99.90;;;;;;5089662;28;20286;-67
2022/09/09 10:00:03;;;;;;;0.75;0.75;;;20.70;99.90;;;;;;5093845;28;20318;-66
2022/09/09 10:02:39;;;;;;;0.60;0.60;;;20.40;99.90;;;;;;5091865;28;20206;-66
2022/09/09 10:05:16;;;;;;;0.70;0.70;;;20.10;99.90;;;;;;5094500;28;20198;-66
2022/09/09 10:07:45;;;;;;;0.80;0.80;;;19.90;99.90;;;;;;5091862;28;20206;-68
2022/09/09 10:10:21;;;;;;;1.03;0.97;;;19.80;99.90;;;;;;5093733;28;20285;-66
2022/09/09 10:13:00;;;;;;;1.43;1.10;;;19.70;99.90;;;;;;5092651;28;20233;-67
2022/09/09 10:15:45;;;;;;;0.70;0.70;;;19.60;99.90;;;;;;5089572;28;20214;-67
2022/09/09 10:18:37;;;;;;;0.60;0.60;;;19.50;99.90;;;;;;5093101;28;20274;-66
2022/09/09 10:21:13;;;;;;;0.60;0.60;;;19.50;99.90;;;;;;5094857;28;20568;-65
2022/09/09 10:23:57;;;;;;;0.60;0.60;;;19.40;99.90;;;;;;5094187;28;20218;-67
2022/09/09 10:26:36;;;;;;;1.03;0.53;;;19.40;99.90;;;;;;5092404;28;20717;-68
2022/09/09 10:29:26;;;;;;;0.50;0.50;;;19.30;99.90;;;;;;5092970;28;20214;-66
2022/09/09 10:32:07;;;;;;;0.60;0.60;;;19.40;99.90;;;;;;5090444;28;20338;-66
2022/09/09 10:34:53;;;;;;;0.60;0.60;;;19.50;99.90;;;;;;5094577;28;20250;-66
2022/09/09 10:37:43;;;;;;;0.37;0.37;;;20.00;99.90;;;;;;5090199;28;20203;-68
2022/09/09 10:40:25;;;;;;;0.60;0.60;;;20.10;99.90;;;;;;5087425;28;20573;-67
2022/09/09 10:42:58;;;;;;;0.73;0.73;;;20.20;99.90;;;;;;5090368;28;20279;-67
2022/09/09 10:45:34;;;;;;;0.70;0.70;;;20.60;99.90;;;;;;5090406;28;20676;-66
2022/09/09 10:48:17;;;;;;;0.63;0.63;;;20.90;99.90;;;;;;5093870;28;20206;-66
2022/09/09 10:50:53;;;;;;;0.70;0.70;;;20.90;99.90;;;;;;5093840;28;20208;-66
2022/09/09 10:53:34;;;;;;;0.85;0.85;;;21.00;99.90;;;;;;5096171;28;20289;-65
2022/09/09 10:56:07;;;;;;;0.67;0.67;;;21.10;99.90;;;;;;5094143;28;20373;-67
2022/09/09 10:58:42;;;;;;;0.40;0.40;;;21.30;99.90;;;;;;5094693;28;20256;-68
2022/09/09 11:01:16;;;;;;;0.40;0.40;;;21.50;99.90;;;;;;5086787;28;20194;-67
2022/09/09 11:03:47;;;;;;;0.50;0.50;;;21.30;99.90;;;;;;5090572;28;20247;-68
2022/09/09 11:06:17;;;;;;;0.70;0.70;;;21.30;99.90;;;;;;5089569;28;21752;-68
2022/09/09 11:08:47;;;;;;;0.70;0.67;;;21.40;99.90;;;;;;5091206;28;20213;-67
2022/09/09 11:11:18;;;;;;;0.85;0.85;;;21.60;99.90;;;;;;5086305;28;20209;-67
2022/09/09 11:13:51;;;;;;;0.60;0.60;;;21.70;99.90;;;;;;5083941;28;20223;-68
2022/09/09 11:16:26;;;;;;;0.40;0.40;;;21.80;99.90;;;;;;5092356;28;20211;-67
2022/09/09 11:18:59;;;;;;;0.60;0.60;;;21.80;99.90;;;;;;5090251;28;20711;-68
2022/09/09 11:21:30;;;;;;;0.70;0.70;;;21.90;99.90;;;;;;5097264;28;20540;-68
2022/09/09 11:24:04;;;;;;;0.60;0.60;;;21.90;99.90;;;;;;5094992;28;20726;-68
2022/09/09 11:26:34;;;;;;;0.80;0.80;;;22.00;99.90;;;;;;5089438;28;20993;-68
2022/09/09 11:29:27;;;;;;;0.87;0.80;;;22.00;99.90;;;;;;5090498;28;20360;-66
2022/09/09 11:32:05;;;;;;;0.63;0.63;;;22.30;99.90;;;;;;5086041;28;20203;-67
2022/09/09 11:34:40;;;;;;;0.80;0.80;;;22.60;99.90;;;;;;5085191;28;20230;-68
2022/09/09 11:37:38;;;;;;;0.63;0.63;;;22.90;99.90;;;;;;5086011;28;20285;-66
2022/09/09 11:40:20;;;;;;;0.67;0.67;;;23.20;99.90;;;;;;5085405;28;20214;-67
2022/09/09 11:42:49;;;;;;;0.50;0.50;;;23.50;99.90;;;;;;5084829;28;20653;-68
2022/09/09 11:45:27;;;;;;;0.70;0.70;;;23.70;99.90;;;;;;5094335;28;20329;-68
2022/09/09 11:47:55;;;;;;;0.60;0.60;;;23.70;99.90;;;;;;5102065;28;20190;-67
2022/09/09 11:50:31;;;;;;;0.70;0.70;;;23.70;99.90;;;;;;5097986;28;20197;-66
2022/09/09 11:53:19;;;;;;;0.53;0.53;;;23.70;99.90;;;;;;5101863;28;20198;-67
2022/09/09 11:55:48;;;;;;;0.68;0.68;;;23.80;99.90;;;;;;5102674;28;20190;-68
2022/09/09 11:58:18;;;;;;;0.70;0.70;;;23.60;99.90;;;;;;5103208;28;20210;-68
2022/09/09 12:00:47;;;;;;;0.77;0.73;;;23.50;99.90;;;;;;5101932;28;20214;-68
2022/09/09 12:03:35;;;;;;;0.70;0.70;;;23.50;99.90;;;;;;5095422;28;20707;-66
2022/09/09 12:06:13;;;;;;;0.50;0.50;;;23.90;99.90;;;;;;5099795;28;20281;-66
2022/09/09 12:08:44;;;;;;;0.70;0.65;;;24.20;99.90;;;;;;5086645;28;20203;-67
2022/09/09 12:11:13;;;;;;;0.60;0.60;;;24.30;99.90;;;;;;5081622;28;20199;-66
2022/09/09 12:13:41;;;;;;;0.53;0.53;;;24.00;99.90;;;;;;5090384;28;20263;-66
2022/09/09 12:16:30;;;;;;;0.63;0.63;;;23.70;99.90;;;;;;5081678;28;20247;-67
2022/09/09 12:19:05;;;;;;;0.60;0.60;;;23.80;99.90;;;;;;5082737;28;20259;-66
2022/09/09 12:21:40;;;;;;;0.60;0.60;;;23.90;99.90;;;;;;5085737;28;20688;-69
2022/09/09 12:24:11;;;;;;;0.60;0.60;;;23.90;99.90;;;;;;5087383;28;20277;-66
2022/09/09 12:26:45;;;;;;;0.70;0.70;;;24.00;99.90;;;;;;5086249;28;20207;-67
2022/09/09 12:29:24;;;;;;;1.50;0.90;;;23.90;99.90;;;;;;5091574;28;20203;-68
2022/09/09 12:31:57;;;;;;;0.60;0.60;;;23.90;99.90;;;;;;5083516;28;20245;-68
2022/09/09 12:34:35;;;;;;;0.60;0.60;;;24.00;99.90;;;;;;5090406;28;20238;-67
2022/09/09 12:37:07;;;;;;;0.80;0.80;;;23.90;99.90;;;;;;5088640;28;20211;-67
2022/09/09 12:39:37;;;;;;;0.73;0.73;;;23.80;99.90;;;;;;5089410;28;20222;-67
2022/09/09 12:42:15;;;;;;;0.57;0.57;;;23.90;99.90;;;;;;5087307;28;20253;-68
2022/09/09 12:44:52;;;;;;;0.60;0.60;;;24.10;99.90;;;;;;5090339;28;20305;-67
2022/09/09 12:47:21;;;;;;;0.63;0.63;;;24.30;99.90;;;;;;5088124;28;20202;-67
2022/09/09 12:49:49;;;;;;;0.65;0.65;;;24.30;99.90;;;;;;5084127;28;20747;-67
2022/09/09 12:52:33;;;;;;;0.63;0.63;;;24.30;99.90;;;;;;5089349;28;20226;-67
2022/09/09 12:55:02;;;;;;;0.90;0.80;;;24.40;99.90;;;;;;5093085;28;20222;-68
2022/09/09 12:57:36;;;;;;;0.47;0.47;;;24.60;99.90;;;;;;5098821;28;20207;-67
2022/09/09 13:00:12;;;;;;;0.87;0.87;;;24.60;99.90;;;;;;5086361;28;20221;-67
2022/09/09 13:02:48;;;;;;;0.85;0.85;;;24.50;99.90;;;;;;5085025;28;20661;-69
2022/09/09 13:05:18;;;;;;;0.82;0.80;;;24.40;99.90;;;;;;5086719;28;20202;-68
2022/09/09 13:07:45;;;;;;;0.60;0.60;;;24.30;99.90;;;;;;5093432;28;20226;-68